Create Tblcommutelog Verified Points Advance Search
| # | Trip ID | Id Commuter | Trip Date | Trip Num | Current Lat | Current Lng | Delta Distance | Current Time | Activity | Activity Confidence | Current Speed | |
|---|---|---|---|---|---|---|---|---|---|---|---|---|
| 69101 | 260317_790203_16659191_1616 | 790203 | (not set) | (not set) | 39.090426648001 | -76.845260040853 | 25.4687 | 2026-03-17 17:46:12 | in_vehicle | 100 | 7.2018024622922 | |
| 69102 | 260317_785147_16653236_1714 | 785147 | (not set) | (not set) | 38.975635633333 | -77.6416747 | 14.5459 | 2026-03-17 17:47:03 | in_vehicle | 100 | 5.498582885549 | |
| 69103 | 260317_781273_16648948_1711 | 781273 | (not set) | (not set) | 38.984774971244 | -77.095579321764 | 7.5786 | 2026-03-17 17:48:12 | on_foot | 100 | 0.83149302171717 | |
| 69104 | 260317_789453_16658316_1645 | 789453 | (not set) | (not set) | 38.919253709059 | -76.937882874632 | 27.2235 | 2026-03-17 17:49:09 | in_vehicle | 100 | 10.612712008369 | |
| 69105 | 260317_781273_16648948_1711 | 781273 | (not set) | (not set) | 38.984778254357 | -77.096714566559 | 7.641 | 2026-03-17 17:49:53 | on_foot | 100 | 0.26822355539263 | |
| 69106 | 260317_790203_16659191_1616 | 790203 | (not set) | (not set) | 39.100719882329 | -76.825970168385 | 26.793 | 2026-03-17 17:50:50 | in_vehicle | 100 | 4.698382611961 | |
| 69107 | 260317_788974_16657725_1658 | 788974 | (not set) | (not set) | 38.917459691911 | -76.971971020174 | 27.7708 | 2026-03-17 17:51:33 | in_vehicle | 100 | 5.5835203447567 | |
| 69108 | 260317_785147_16653236_1714 | 785147 | (not set) | (not set) | 38.972247916667 | -77.719816166667 | 18.859 | 2026-03-17 17:52:46 | still | 33 | 9.3833540461523 | |
| 69109 | 260317_789453_16658316_1645 | 789453 | (not set) | (not set) | 38.915651638295 | -76.985224448182 | 29.8536 | 2026-03-17 17:54:01 | in_vehicle | 100 | 5.3868230708021 | |
| 69110 | 260317_789453_16658316_1645 | 789453 | (not set) | (not set) | 38.913014165006 | -76.992813923128 | 30.3014 | 2026-03-17 17:55:17 | in_vehicle | 100 | 6.0216188185646 | |
| 69111 | 260317_790203_16659191_1616 | 790203 | (not set) | (not set) | 39.1163991 | -76.8316541 | 28.0254 | 2026-03-17 17:56:17 | in_vehicle | 100 | 4.9666061673536 | |
| 69112 | 260317_785147_16653236_1714 | 785147 | (not set) | (not set) | 38.969561766667 | -77.77565875 | 21.9425 | 2026-03-17 17:57:37 | in_vehicle | 100 | 11.336915607929 | |
| 69113 | 260317_785147_16653236_1714 | 785147 | (not set) | (not set) | 38.974141883333 | -77.79677385 | 23.1297 | 2026-03-17 17:58:55 | in_vehicle | 100 | 10.120968823482 | |
| 69114 | 260317_788974_16657725_1658 | 788974 | (not set) | (not set) | 38.907133198854 | -77.000789195687 | 29.5789 | 2026-03-17 17:59:26 | on_foot | 100 | 0.31739787388128 | |
| 69115 | 260317_790203_16659191_1616 | 790203 | (not set) | (not set) | 39.1401748 | -76.8542704 | 30.3228 | 2026-03-17 18:01:48 | in_vehicle | 100 | 5.2214185449766 | |
| 69116 | 260317_781273_16648948_1711 | 781273 | (not set) | (not set) | 38.987352557093 | -77.099160591153 | 8.0921 | 2026-03-17 18:03:30 | on_foot | 100 | 1.8283905692598 | |
| 69117 | 260317_789319_16658161_1725 | 789319 | (not set) | (not set) | 39.048144899313 | -77.112900975378 | 15.693 | 2026-03-17 18:04:51 | in_vehicle | 100 | -0.44703925898772 | |
| 69118 | 260317_785147_16653236_1714 | 785147 | (not set) | (not set) | 38.996604716667 | -77.892846466667 | 28.574 | 2026-03-17 18:06:33 | in_vehicle | 100 | 6.5759474997094 | |
| 69119 | 260317_781273_16648948_1711 | 781273 | (not set) | (not set) | 38.990455379469 | -77.096654022543 | 8.3708 | 2026-03-17 18:07:54 | on_foot | 100 | 0.54091750337515 | |
| 69120 | 260317_781273_16648948_1711 | 781273 | (not set) | (not set) | 38.991012829976 | -77.095939753405 | 8.4377 | 2026-03-17 18:09:26 | on_foot | 100 | 0.42021690344846 |